sensor_id;sensor_type;location;lat;lon;timestamp;pressure;altitude;pressure_sealevel;temperature;humidity
23253;BME280;11795;47.054;15.408;2022-09-17T00:00:00;96690;;;13.5;100.0
23253;BME280;11795;47.054;15.408;2022-09-17T00:02:00;96700;;;13.4;100.0
23253;BME280;11795;47.054;15.408;2022-09-17T00:04:03;96700;;;13.4;100.0
23253;BME280;11795;47.054;15.408;2022-09-17T00:06:02;96700;;;13.5;100.0
23253;BME280;11795;47.054;15.408;2022-09-17T00:08:00;96700;;;13.4;100.0
23253;BME280;11795;47.054;15.408;2022-09-17T00:10:00;96700;;;13.5;100.0
23253;BME280;11795;47.054;15.408;2022-09-17T00:12:00;96700;;;13.5;100.0
23253;BME280;11795;47.054;15.408;2022-09-17T00:14:02;96700;;;13.4;100.0
23253;BME280;11795;47.054;15.408;2022-09-17T00:16:00;96690;;;13.4;100.0
23253;BME280;11795;47.054;15.408;2022-09-17T00:18:00;96690;;;13.4;100.0
23253;BME280;11795;47.054;15.408;2022-09-17T00:20:01;96690;;;13.5;100.0
23253;BME280;11795;47.054;15.408;2022-09-17T00:22:00;96690;;;13.3;100.0
23253;BME280;11795;47.054;15.408;2022-09-17T00:24:02;96680;;;13.3;100.0
23253;BME280;11795;47.054;15.408;2022-09-17T00:26:03;96680;;;13.4;100.0
23253;BME280;11795;47.054;15.408;2022-09-17T00:28:00;96680;;;13.3;100.0
23253;BME280;11795;47.054;15.408;2022-09-17T00:30:00;96680;;;13.4;100.0
23253;BME280;11795;47.054;15.408;2022-09-17T00:32:00;96680;;;13.3;99.9
23253;BME280;11795;47.054;15.408;2022-09-17T00:34:02;96680;;;13.3;100.0
23253;BME280;11795;47.054;15.408;2022-09-17T00:36:02;96680;;;13.4;99.8
23253;BME280;11795;47.054;15.408;2022-09-17T00:38:00;96670;;;13.2;100.0
23253;BME280;11795;47.054;15.408;2022-09-17T00:40:00;96660;;;13.5;100.0
23253;BME280;11795;47.054;15.408;2022-09-17T00:42:04;96650;;;13.3;100.0
23253;BME280;11795;47.054;15.408;2022-09-17T00:44:34;96650;;;13.2;100.0
23253;BME280;11795;47.054;15.408;2022-09-17T00:46:01;96650;;;13.4;99.7
23253;BME280;11795;47.054;15.408;2022-09-17T00:48:02;96660;;;13.3;100.0
23253;BME280;11795;47.054;15.408;2022-09-17T00:50:02;96660;;;13.5;100.0
23253;BME280;11795;47.054;15.408;2022-09-17T00:52:04;96660;;;13.3;99.7
23253;BME280;11795;47.054;15.408;2022-09-17T00:54:02;96650;;;13.3;100.0
23253;BME280;11795;47.054;15.408;2022-09-17T00:56:03;96640;;;13.4;98.9
23253;BME280;11795;47.054;15.408;2022-09-17T00:58:01;96630;;;13.3;99.4
23253;BME280;11795;47.054;15.408;2022-09-17T01:00:01;96640;;;13.4;99.7
23253;BME280;11795;47.054;15.408;2022-09-17T01:02:01;96640;;;13.3;99.5
23253;BME280;11795;47.054;15.408;2022-09-17T01:04:00;96640;;;13.3;99.4
23253;BME280;11795;47.054;15.408;2022-09-17T01:06:05;96640;;;13.4;99.0
23253;BME280;11795;47.054;15.408;2022-09-17T01:08:07;96630;;;13.4;99.3
23253;BME280;11795;47.054;15.408;2022-09-17T01:10:06;96630;;;13.5;98.7
23253;BME280;11795;47.054;15.408;2022-09-17T01:12:09;96640;;;13.4;98.3
23253;BME280;11795;47.054;15.408;2022-09-17T01:14:12;96640;;;13.3;98.8
23253;BME280;11795;47.054;15.408;2022-09-17T01:16:06;96650;;;13.4;98.5
23253;BME280;11795;47.054;15.408;2022-09-17T01:18:10;96640;;;13.2;99.2
23253;BME280;11795;47.054;15.408;2022-09-17T01:20:14;96640;;;13.4;99.6
23253;BME280;11795;47.054;15.408;2022-09-17T01:22:02;96630;;;13.3;99.2
23253;BME280;11795;47.054;15.408;2022-09-17T01:24:20;96640;;;13.2;99.8
23253;BME280;11795;47.054;15.408;2022-09-17T01:26:15;96640;;;13.4;99.4
23253;BME280;11795;47.054;15.408;2022-09-17T01:28:14;96640;;;13.3;99.8
23253;BME280;11795;47.054;15.408;2022-09-17T01:30:14;96640;;;13.4;100.0
23253;BME280;11795;47.054;15.408;2022-09-17T01:32:06;96630;;;13.3;99.7
23253;BME280;11795;47.054;15.408;2022-09-17T01:34:07;96620;;;13.2;100.0
23253;BME280;11795;47.054;15.408;2022-09-17T01:36:06;96620;;;13.4;99.6
23253;BME280;11795;47.054;15.408;2022-09-17T01:38:04;96620;;;13.3;99.8
23253;BME280;11795;47.054;15.408;2022-09-17T01:40:04;96620;;;13.4;100.0
23253;BME280;11795;47.054;15.408;2022-09-17T01:42:08;96610;;;13.4;99.5
23253;BME280;11795;47.054;15.408;2022-09-17T01:44:05;96610;;;13.3;100.0
23253;BME280;11795;47.054;15.408;2022-09-17T01:46:05;96610;;;13.4;99.3
23253;BME280;11795;47.054;15.408;2022-09-17T01:48:03;96610;;;13.3;99.7
23253;BME280;11795;47.054;15.408;2022-09-17T01:50:03;96600;;;13.4;100.0
23253;BME280;11795;47.054;15.408;2022-09-17T01:52:01;96600;;;13.4;99.4
23253;BME280;11795;47.054;15.408;2022-09-17T01:54:03;96600;;;13.3;99.8
23253;BME280;11795;47.054;15.408;2022-09-17T01:56:01;96600;;;13.4;99.1
23253;BME280;11795;47.054;15.408;2022-09-17T01:58:04;96610;;;13.3;99.3
23253;BME280;11795;47.054;15.408;2022-09-17T02:00:04;96620;;;13.4;99.7
23253;BME280;11795;47.054;15.408;2022-09-17T02:02:06;96630;;;13.3;99.2
23253;BME280;11795;47.054;15.408;2022-09-17T02:04:03;96630;;;13.2;99.6
23253;BME280;11795;47.054;15.408;2022-09-17T02:06:05;96630;;;13.5;98.7
23253;BME280;11795;47.054;15.408;2022-09-17T02:08:05;96630;;;13.5;97.6
23253;BME280;11795;47.054;15.408;2022-09-17T02:10:04;96630;;;13.4;98.3
23253;BME280;11795;47.054;15.408;2022-09-17T02:12:02;96640;;;13.4;98.2
23253;BME280;11795;47.054;15.408;2022-09-17T02:14:03;96650;;;13.5;97.6
23253;BME280;11795;47.054;15.408;2022-09-17T02:16:05;96660;;;13.5;97.2
23253;BME280;11795;47.054;15.408;2022-09-17T02:18:04;96650;;;13.2;98.7
23253;BME280;11795;47.054;15.408;2022-09-17T02:20:01;96640;;;13.2;99.8
23253;BME280;11795;47.054;15.408;2022-09-17T02:22:03;96640;;;13.1;100.0
23253;BME280;11795;47.054;15.408;2022-09-17T02:24:06;96620;;;13.0;100.0
23253;BME280;11795;47.054;15.408;2022-09-17T02:26:05;96620;;;13.2;100.0
23253;BME280;11795;47.054;15.408;2022-09-17T02:28:02;96620;;;13.1;100.0
23253;BME280;11795;47.054;15.408;2022-09-17T02:30:00;96620;;;13.2;100.0
23253;BME280;11795;47.054;15.408;2022-09-17T02:32:00;96620;;;13.1;100.0
23253;BME280;11795;47.054;15.408;2022-09-17T02:34:02;96610;;;13.1;100.0
23253;BME280;11795;47.054;15.408;2022-09-17T02:36:01;96610;;;13.2;100.0
23253;BME280;11795;47.054;15.408;2022-09-17T02:38:00;96610;;;13.1;100.0
23253;BME280;11795;47.054;15.408;2022-09-17T02:40:00;96610;;;13.2;100.0
23253;BME280;11795;47.054;15.408;2022-09-17T02:42:07;96620;;;13.2;100.0
23253;BME280;11795;47.054;15.408;2022-09-17T02:44:08;96620;;;13.1;100.0
23253;BME280;11795;47.054;15.408;2022-09-17T02:46:10;96610;;;13.3;100.0
23253;BME280;11795;47.054;15.408;2022-09-17T02:48:14;96600;;;13.2;100.0
23253;BME280;11795;47.054;15.408;2022-09-17T02:50:14;96600;;;13.2;100.0
23253;BME280;11795;47.054;15.408;2022-09-17T02:52:05;96600;;;13.2;100.0
23253;BME280;11795;47.054;15.408;2022-09-17T02:54:06;96590;;;13.1;100.0
23253;BME280;11795;47.054;15.408;2022-09-17T02:56:09;96580;;;13.3;100.0
23253;BME280;11795;47.054;15.408;2022-09-17T02:58:05;96580;;;13.2;100.0
23253;BME280;11795;47.054;15.408;2022-09-17T03:00:07;96580;;;13.2;100.0
23253;BME280;11795;47.054;15.408;2022-09-17T03:02:06;96580;;;13.2;100.0
23253;BME280;11795;47.054;15.408;2022-09-17T03:04:01;96570;;;13.2;100.0
23253;BME280;11795;47.054;15.408;2022-09-17T03:06:00;96560;;;13.3;100.0
23253;BME280;11795;47.054;15.408;2022-09-17T03:08:00;96560;;;13.2;100.0
23253;BME280;11795;47.054;15.408;2022-09-17T03:10:00;96560;;;13.3;100.0
23253;BME280;11795;47.054;15.408;2022-09-17T03:12:01;96560;;;13.3;100.0
23253;BME280;11795;47.054;15.408;2022-09-17T03:14:00;96560;;;13.2;100.0
23253;BME280;11795;47.054;15.408;2022-09-17T03:16:01;96560;;;13.4;100.0
23253;BME280;11795;47.054;15.408;2022-09-17T03:18:00;96570;;;13.3;100.0
23253;BME280;11795;47.054;15.408;2022-09-17T03:20:00;96570;;;13.3;100.0
23253;BME280;11795;47.054;15.408;2022-09-17T03:22:00;96570;;;13.3;100.0
23253;BME280;11795;47.054;15.408;2022-09-17T03:24:00;96560;;;13.2;100.0
23253;BME280;11795;47.054;15.408;2022-09-17T03:26:00;96570;;;13.4;100.0
23253;BME280;11795;47.054;15.408;2022-09-17T03:28:00;96570;;;13.3;100.0
23253;BME280;11795;47.054;15.408;2022-09-17T03:30:00;96580;;;13.3;100.0
23253;BME280;11795;47.054;15.408;2022-09-17T03:32:00;96570;;;13.4;99.2
23253;BME280;11795;47.054;15.408;2022-09-17T03:34:00;96570;;;13.3;99.6
23253;BME280;11795;47.054;15.408;2022-09-17T03:36:01;96580;;;13.4;99.4
23253;BME280;11795;47.054;15.408;2022-09-17T03:38:00;96590;;;13.2;99.9
23253;BME280;11795;47.054;15.408;2022-09-17T03:40:00;96590;;;13.2;100.0
23253;BME280;11795;47.054;15.408;2022-09-17T03:42:00;96580;;;13.3;99.9
23253;BME280;11795;47.054;15.408;2022-09-17T03:44:00;96580;;;13.2;100.0
23253;BME280;11795;47.054;15.408;2022-09-17T03:46:00;96580;;;13.4;100.0
23253;BME280;11795;47.054;15.408;2022-09-17T03:48:01;96580;;;13.3;100.0
23253;BME280;11795;47.054;15.408;2022-09-17T03:50:00;96580;;;13.3;100.0
23253;BME280;11795;47.054;15.408;2022-09-17T03:52:00;96580;;;13.4;100.0
23253;BME280;11795;47.054;15.408;2022-09-17T03:54:01;96580;;;13.3;100.0
23253;BME280;11795;47.054;15.408;2022-09-17T03:56:02;96580;;;13.5;100.0
23253;BME280;11795;47.054;15.408;2022-09-17T03:58:00;96590;;;13.4;100.0
23253;BME280;11795;47.054;15.408;2022-09-17T04:00:00;96600;;;13.3;100.0
23253;BME280;11795;47.054;15.408;2022-09-17T04:02:00;96590;;;13.4;100.0
23253;BME280;11795;47.054;15.408;2022-09-17T04:04:01;96590;;;13.4;100.0
23253;BME280;11795;47.054;15.408;2022-09-17T04:06:00;96590;;;13.5;99.6
23253;BME280;11795;47.054;15.408;2022-09-17T04:08:01;96590;;;13.3;100.0
23253;BME280;11795;47.054;15.408;2022-09-17T04:10:00;96590;;;13.3;100.0
23253;BME280;11795;47.054;15.408;2022-09-17T04:12:00;96590;;;13.4;99.9
23253;BME280;11795;47.054;15.408;2022-09-17T04:14:00;96580;;;13.3;100.0
23253;BME280;11795;47.054;15.408;2022-09-17T04:16:00;96570;;;13.5;100.0
23253;BME280;11795;47.054;15.408;2022-09-17T04:18:00;96560;;;13.4;100.0
23253;BME280;11795;47.054;15.408;2022-09-17T04:20:00;96550;;;13.3;100.0
23253;BME280;11795;47.054;15.408;2022-09-17T04:22:00;96560;;;13.4;100.0
23253;BME280;11795;47.054;15.408;2022-09-17T04:24:00;96550;;;13.3;100.0
23253;BME280;11795;47.054;15.408;2022-09-17T04:26:00;96550;;;13.5;100.0
23253;BME280;11795;47.054;15.408;2022-09-17T04:28:00;96550;;;13.4;100.0
23253;BME280;11795;47.054;15.408;2022-09-17T04:30:00;96550;;;13.3;100.0
23253;BME280;11795;47.054;15.408;2022-09-17T04:32:00;96560;;;13.4;99.8
23253;BME280;11795;47.054;15.408;2022-09-17T04:34:00;96560;;;13.3;100.0
23253;BME280;11795;47.054;15.408;2022-09-17T04:36:00;96580;;;13.5;99.9
23253;BME280;11795;47.054;15.408;2022-09-17T04:38:00;96580;;;13.4;99.9
23253;BME280;11795;47.054;15.408;2022-09-17T04:40:01;96560;;;13.3;100.0
23253;BME280;11795;47.054;15.408;2022-09-17T04:42:00;96550;;;13.4;99.5
23253;BME280;11795;47.054;15.408;2022-09-17T04:44:00;96570;;;13.3;99.9
23253;BME280;11795;47.054;15.408;2022-09-17T04:46:00;96600;;;13.5;98.5
23253;BME280;11795;47.054;15.408;2022-09-17T04:48:01;96600;;;13.4;98.7
23253;BME280;11795;47.054;15.408;2022-09-17T04:50:00;96610;;;13.3;98.8
23253;BME280;11795;47.054;15.408;2022-09-17T04:52:00;96610;;;13.3;98.0
23253;BME280;11795;47.054;15.408;2022-09-17T04:54:00;96590;;;13.2;98.6
23253;BME280;11795;47.054;15.408;2022-09-17T04:56:00;96590;;;13.4;98.1
23253;BME280;11795;47.054;15.408;2022-09-17T04:58:00;96590;;;13.2;98.4
23253;BME280;11795;47.054;15.408;2022-09-17T05:00:00;96590;;;13.2;98.8
23253;BME280;11795;47.054;15.408;2022-09-17T05:02:00;96600;;;13.3;97.8
23253;BME280;11795;47.054;15.408;2022-09-17T05:04:00;96600;;;13.2;98.3
23253;BME280;11795;47.054;15.408;2022-09-17T05:06:00;96590;;;13.4;97.8
23253;BME280;11795;47.054;15.408;2022-09-17T05:08:00;96590;;;13.1;97.1
23253;BME280;11795;47.054;15.408;2022-09-17T05:10:00;96580;;;13.0;97.2
23253;BME280;11795;47.054;15.408;2022-09-17T05:12:01;96560;;;13.1;96.1
23253;BME280;11795;47.054;15.408;2022-09-17T05:14:00;96560;;;13.0;96.6
23253;BME280;11795;47.054;15.408;2022-09-17T05:16:00;96560;;;13.2;96.1
23253;BME280;11795;47.054;15.408;2022-09-17T05:18:00;96560;;;13.0;95.5
23253;BME280;11795;47.054;15.408;2022-09-17T05:20:01;96550;;;12.8;95.8
23253;BME280;11795;47.054;15.408;2022-09-17T05:22:00;96560;;;13.0;94.9
23253;BME280;11795;47.054;15.408;2022-09-17T05:24:01;96550;;;12.8;95.9
23253;BME280;11795;47.054;15.408;2022-09-17T05:26:01;96560;;;13.1;95.3
23253;BME280;11795;47.054;15.408;2022-09-17T05:28:00;96560;;;12.9;95.3
23253;BME280;11795;47.054;15.408;2022-09-17T05:30:00;96570;;;12.9;95.8
23253;BME280;11795;47.054;15.408;2022-09-17T05:32:00;96580;;;13.0;95.2
23253;BME280;11795;47.054;15.408;2022-09-17T05:34:00;96570;;;13.0;95.6
23253;BME280;11795;47.054;15.408;2022-09-17T05:36:00;96560;;;13.1;95.3
23253;BME280;11795;47.054;15.408;2022-09-17T05:38:02;96560;;;13.0;95.4
23253;BME280;11795;47.054;15.408;2022-09-17T05:40:01;96550;;;12.9;95.9
23253;BME280;11795;47.054;15.408;2022-09-17T05:42:00;96560;;;13.1;95.0
23253;BME280;11795;47.054;15.408;2022-09-17T05:44:00;96570;;;13.0;95.5
23253;BME280;11795;47.054;15.408;2022-09-17T05:46:00;96570;;;13.2;95.2
23253;BME280;11795;47.054;15.408;2022-09-17T05:48:01;96580;;;13.1;95.2
23253;BME280;11795;47.054;15.408;2022-09-17T05:50:00;96580;;;13.0;95.7
23253;BME280;11795;47.054;15.408;2022-09-17T05:52:01;96580;;;13.3;94.7
23253;BME280;11795;47.054;15.408;2022-09-17T05:54:00;96590;;;13.3;93.7
23253;BME280;11795;47.054;15.408;2022-09-17T05:56:00;96580;;;13.3;94.1
23253;BME280;11795;47.054;15.408;2022-09-17T05:58:07;96580;;;13.1;94.6
23253;BME280;11795;47.054;15.408;2022-09-17T06:00:00;96570;;;13.0;95.4
23253;BME280;11795;47.054;15.408;2022-09-17T06:02:00;96580;;;13.1;95.3
23253;BME280;11795;47.054;15.408;2022-09-17T06:04:02;96580;;;13.0;95.9
23253;BME280;11795;47.054;15.408;2022-09-17T06:06:00;96580;;;13.2;95.8
23253;BME280;11795;47.054;15.408;2022-09-17T06:08:01;96570;;;13.1;95.9
23253;BME280;11795;47.054;15.408;2022-09-17T06:10:00;96570;;;13.0;96.5
23253;BME280;11795;47.054;15.408;2022-09-17T06:12:01;96560;;;13.1;96.0
23253;BME280;11795;47.054;15.408;2022-09-17T06:14:00;96570;;;13.1;96.6
23253;BME280;11795;47.054;15.408;2022-09-17T06:16:01;96580;;;13.3;95.2
23253;BME280;11795;47.054;15.408;2022-09-17T06:18:00;96580;;;13.1;95.2
23253;BME280;11795;47.054;15.408;2022-09-17T06:20:00;96570;;;13.1;95.6
23253;BME280;11795;47.054;15.408;2022-09-17T06:22:01;96560;;;13.2;94.9
23253;BME280;11795;47.054;15.408;2022-09-17T06:24:00;96570;;;13.1;95.4
23253;BME280;11795;47.054;15.408;2022-09-17T06:26:00;96570;;;13.3;95.3
23253;BME280;11795;47.054;15.408;2022-09-17T06:28:01;96580;;;13.2;95.1
23253;BME280;11795;47.054;15.408;2022-09-17T06:30:00;96580;;;13.1;95.5
23253;BME280;11795;47.054;15.408;2022-09-17T06:32:01;96580;;;13.2;94.9
23253;BME280;11795;47.054;15.408;2022-09-17T06:34:01;96580;;;13.1;95.4
23253;BME280;11795;47.054;15.408;2022-09-17T06:36:02;96580;;;13.3;95.2
23253;BME280;11795;47.054;15.408;2022-09-17T06:38:03;96580;;;13.2;95.2
23253;BME280;11795;47.054;15.408;2022-09-17T06:40:00;96590;;;13.2;95.7
23253;BME280;11795;47.054;15.408;2022-09-17T06:42:01;96590;;;13.3;95.1
23253;BME280;11795;47.054;15.408;2022-09-17T06:44:01;96600;;;13.2;95.6
23253;BME280;11795;47.054;15.408;2022-09-17T06:46:02;96610;;;13.4;95.4
23253;BME280;11795;47.054;15.408;2022-09-17T06:48:02;96610;;;13.3;95.3
23253;BME280;11795;47.054;15.408;2022-09-17T06:50:00;96620;;;13.3;95.8
23253;BME280;11795;47.054;15.408;2022-09-17T06:52:00;96630;;;13.4;95.0
23253;BME280;11795;47.054;15.408;2022-09-17T06:54:00;96630;;;13.3;95.6
23253;BME280;11795;47.054;15.408;2022-09-17T06:56:00;96630;;;13.5;95.4
23253;BME280;11795;47.054;15.408;2022-09-17T06:58:00;96620;;;13.4;95.4
23253;BME280;11795;47.054;15.408;2022-09-17T07:00:01;96620;;;13.4;95.9
23253;BME280;11795;47.054;15.408;2022-09-17T07:02:00;96610;;;13.5;95.2
23253;BME280;11795;47.054;15.408;2022-09-17T07:04:01;96610;;;13.4;95.6
23253;BME280;11795;47.054;15.408;2022-09-17T07:06:00;96610;;;13.6;95.5
23253;BME280;11795;47.054;15.408;2022-09-17T07:08:01;96600;;;13.5;95.6
23253;BME280;11795;47.054;15.408;2022-09-17T07:10:00;96610;;;13.4;96.0
23253;BME280;11795;47.054;15.408;2022-09-17T07:12:00;96610;;;13.6;95.3
23253;BME280;11795;47.054;15.408;2022-09-17T07:14:00;96610;;;13.5;95.7
23253;BME280;11795;47.054;15.408;2022-09-17T07:16:02;96610;;;13.7;95.6
23253;BME280;11795;47.054;15.408;2022-09-17T07:18:06;96610;;;13.6;95.3
23253;BME280;11795;47.054;15.408;2022-09-17T07:20:01;96600;;;13.5;95.8
23253;BME280;11795;47.054;15.408;2022-09-17T07:22:00;96600;;;13.7;94.8
23253;BME280;11795;47.054;15.408;2022-09-17T07:24:00;96610;;;13.6;95.2
23253;BME280;11795;47.054;15.408;2022-09-17T07:26:02;96610;;;13.8;94.9
23253;BME280;11795;47.054;15.408;2022-09-17T07:28:02;96620;;;13.6;94.4
23253;BME280;11795;47.054;15.408;2022-09-17T07:30:00;96620;;;13.6;94.9
23253;BME280;11795;47.054;15.408;2022-09-17T07:32:00;96620;;;13.7;94.2
23253;BME280;11795;47.054;15.408;2022-09-17T07:34:00;96630;;;13.6;94.8
23253;BME280;11795;47.054;15.408;2022-09-17T07:36:02;96630;;;13.8;94.7
23253;BME280;11795;47.054;15.408;2022-09-17T07:38:00;96630;;;13.7;94.1
23253;BME280;11795;47.054;15.408;2022-09-17T07:40:00;96630;;;13.6;94.5
23253;BME280;11795;47.054;15.408;2022-09-17T07:42:03;96630;;;13.8;93.7
23253;BME280;11795;47.054;15.408;2022-09-17T07:44:01;96650;;;13.6;94.0
23253;BME280;11795;47.054;15.408;2022-09-17T07:46:02;96660;;;13.8;94.0
23253;BME280;11795;47.054;15.408;2022-09-17T07:48:00;96660;;;13.7;93.7
23253;BME280;11795;47.054;15.408;2022-09-17T07:50:00;96650;;;13.6;94.1
23253;BME280;11795;47.054;15.408;2022-09-17T07:52:05;96650;;;13.8;93.2
23253;BME280;11795;47.054;15.408;2022-09-17T07:54:01;96650;;;13.6;93.7
23253;BME280;11795;47.054;15.408;2022-09-17T07:56:00;96650;;;13.8;93.7
23253;BME280;11795;47.054;15.408;2022-09-17T07:58:00;96650;;;13.6;93.5
23253;BME280;11795;47.054;15.408;2022-09-17T08:00:00;96640;;;13.6;94.1
23253;BME280;11795;47.054;15.408;2022-09-17T08:02:00;96640;;;13.7;93.5
23253;BME280;11795;47.054;15.408;2022-09-17T08:04:01;96640;;;13.6;94.0
23253;BME280;11795;47.054;15.408;2022-09-17T08:06:01;96630;;;13.8;94.0
23253;BME280;11795;47.054;15.408;2022-09-17T08:08:00;96650;;;13.7;93.7
23253;BME280;11795;47.054;15.408;2022-09-17T08:10:01;96640;;;13.6;94.1
23253;BME280;11795;47.054;15.408;2022-09-17T08:12:01;96640;;;13.8;93.2
23253;BME280;11795;47.054;15.408;2022-09-17T08:14:00;96650;;;13.7;93.5
23253;BME280;11795;47.054;15.408;2022-09-17T08:16:01;96630;;;13.8;93.1
23253;BME280;11795;47.054;15.408;2022-09-17T08:18:00;96640;;;13.8;92.7
23253;BME280;11795;47.054;15.408;2022-09-17T08:20:00;96640;;;13.7;92.7
23253;BME280;11795;47.054;15.408;2022-09-17T08:22:00;96660;;;13.8;91.7
23253;BME280;11795;47.054;15.408;2022-09-17T08:24:01;96670;;;13.6;91.8
23253;BME280;11795;47.054;15.408;2022-09-17T08:26:01;96680;;;13.7;92.2
23253;BME280;11795;47.054;15.408;2022-09-17T08:28:00;96700;;;13.8;91.5
23253;BME280;11795;47.054;15.408;2022-09-17T08:30:00;96700;;;13.6;91.1
23253;BME280;11795;47.054;15.408;2022-09-17T08:32:01;96710;;;13.7;90.8
23253;BME280;11795;47.054;15.408;2022-09-17T08:34:00;96710;;;13.6;91.2
23253;BME280;11795;47.054;15.408;2022-09-17T08:36:00;96720;;;13.6;90.9
23253;BME280;11795;47.054;15.408;2022-09-17T08:38:00;96720;;;13.5;90.5
23253;BME280;11795;47.054;15.408;2022-09-17T08:40:01;96720;;;13.4;90.1
23253;BME280;11795;47.054;15.408;2022-09-17T08:42:06;96720;;;13.4;89.8
23253;BME280;11795;47.054;15.408;2022-09-17T08:44:10;96720;;;13.4;89.5
23253;BME280;11795;47.054;15.408;2022-09-17T08:46:00;96700;;;13.4;89.6
23253;BME280;11795;47.054;15.408;2022-09-17T08:48:02;96690;;;13.3;89.1
23253;BME280;11795;47.054;15.408;2022-09-17T08:50:03;96670;;;13.3;89.6
23253;BME280;11795;47.054;15.408;2022-09-17T08:52:17;96660;;;13.4;88.8
23253;BME280;11795;47.054;15.408;2022-09-17T08:54:07;96650;;;13.2;89.5
23253;BME280;11795;47.054;15.408;2022-09-17T08:56:03;96650;;;13.4;89.8
23253;BME280;11795;47.054;15.408;2022-09-17T08:58:16;96660;;;13.4;89.8
23253;BME280;11795;47.054;15.408;2022-09-17T09:00:03;96660;;;13.3;90.5
23253;BME280;11795;47.054;15.408;2022-09-17T09:02:10;96660;;;13.5;90.1
23253;BME280;11795;47.054;15.408;2022-09-17T09:04:13;96660;;;13.4;90.1
23253;BME280;11795;47.054;15.408;2022-09-17T09:06:01;96670;;;13.5;89.2
23253;BME280;11795;47.054;15.408;2022-09-17T09:08:04;96670;;;13.4;88.9
23253;BME280;11795;47.054;15.408;2022-09-17T09:10:11;96670;;;13.4;89.3
23253;BME280;11795;47.054;15.408;2022-09-17T09:12:03;96670;;;13.6;88.2
23253;BME280;11795;47.054;15.408;2022-09-17T09:14:04;96670;;;13.5;88.7
23253;BME280;11795;47.054;15.408;2022-09-17T09:16:02;96680;;;13.6;89.1
23253;BME280;11795;47.054;15.408;2022-09-17T09:18:10;96680;;;13.6;89.0
23253;BME280;11795;47.054;15.408;2022-09-17T09:20:00;96680;;;13.5;89.7
23253;BME280;11795;47.054;15.408;2022-09-17T09:22:02;96690;;;13.7;88.9
23253;BME280;11795;47.054;15.408;2022-09-17T09:24:04;96690;;;13.6;89.4
23253;BME280;11795;47.054;15.408;2022-09-17T09:26:07;96690;;;13.8;89.0
23253;BME280;11795;47.054;15.408;2022-09-17T09:28:09;96680;;;13.7;88.1
23253;BME280;11795;47.054;15.408;2022-09-17T09:30:04;96680;;;13.6;87.9
23253;BME280;11795;47.054;15.408;2022-09-17T09:32:13;96680;;;13.8;87.4
23253;BME280;11795;47.054;15.408;2022-09-17T09:34:01;96670;;;13.7;87.9
23253;BME280;11795;47.054;15.408;2022-09-17T09:36:00;96670;;;13.8;88.1
23253;BME280;11795;47.054;15.408;2022-09-17T09:38:09;96670;;;13.8;87.8
23253;BME280;11795;47.054;15.408;2022-09-17T09:40:15;96660;;;13.8;88.2
23253;BME280;11795;47.054;15.408;2022-09-17T09:42:04;96650;;;14.0;87.0
23253;BME280;11795;47.054;15.408;2022-09-17T09:44:01;96640;;;13.9;87.3
23253;BME280;11795;47.054;15.408;2022-09-17T09:46:11;96630;;;13.9;87.8
23253;BME280;11795;47.054;15.408;2022-09-17T09:48:06;96630;;;14.0;88.0
23253;BME280;11795;47.054;15.408;2022-09-17T09:50:16;96630;;;14.0;88.7
23253;BME280;11795;47.054;15.408;2022-09-17T09:52:09;96630;;;14.2;87.6
23253;BME280;11795;47.054;15.408;2022-09-17T09:54:12;96630;;;14.2;87.6
23253;BME280;11795;47.054;15.408;2022-09-17T09:56:08;96620;;;14.2;87.5
23253;BME280;11795;47.054;15.408;2022-09-17T09:58:04;96610;;;14.3;87.3
23253;BME280;11795;47.054;15.408;2022-09-17T10:02:00;96620;;;14.5;86.6
23253;BME280;11795;47.054;15.408;2022-09-17T10:04:00;96620;;;14.4;86.4
23253;BME280;11795;47.054;15.408;2022-09-17T10:06:02;96620;;;14.5;86.6
23253;BME280;11795;47.054;15.408;2022-09-17T10:08:10;96630;;;14.6;85.6
23253;BME280;11795;47.054;15.408;2022-09-17T10:10:08;96630;;;14.5;85.2
23253;BME280;11795;47.054;15.408;2022-09-17T10:12:03;96630;;;14.7;84.8
23253;BME280;11795;47.054;15.408;2022-09-17T10:14:14;96630;;;14.6;84.8
23253;BME280;11795;47.054;15.408;2022-09-17T10:16:18;96630;;;14.7;84.9
23253;BME280;11795;47.054;15.408;2022-09-17T10:18:11;96630;;;14.8;83.6
23253;BME280;11795;47.054;15.408;2022-09-17T10:20:12;96620;;;14.8;83.9
23253;BME280;11795;47.054;15.408;2022-09-17T10:22:19;96610;;;14.9;82.3
23253;BME280;11795;47.054;15.408;2022-09-17T10:24:01;96600;;;14.8;82.0
23253;BME280;11795;47.054;15.408;2022-09-17T10:26:00;96610;;;14.7;80.9
23253;BME280;11795;47.054;15.408;2022-09-17T10:28:02;96610;;;14.8;80.2
23253;BME280;11795;47.054;15.408;2022-09-17T10:30:03;96610;;;14.8;80.6
23253;BME280;11795;47.054;15.408;2022-09-17T10:32:01;96610;;;14.9;75.9
23253;BME280;11795;47.054;15.408;2022-09-17T10:34:01;96620;;;14.8;76.6
23253;BME280;11795;47.054;15.408;2022-09-17T10:36:02;96630;;;14.8;76.2
23253;BME280;11795;47.054;15.408;2022-09-17T10:38:00;96640;;;14.8;75.1
23253;BME280;11795;47.054;15.408;2022-09-17T10:40:00;96650;;;14.7;74.6
23253;BME280;11795;47.054;15.408;2022-09-17T10:42:01;96640;;;14.9;74.4
23253;BME280;11795;47.054;15.408;2022-09-17T10:44:15;96640;;;14.8;74.6
23253;BME280;11795;47.054;15.408;2022-09-17T10:46:01;96640;;;14.8;75.0
23253;BME280;11795;47.054;15.408;2022-09-17T10:48:01;96640;;;14.9;74.4
23253;BME280;11795;47.054;15.408;2022-09-17T10:50:01;96640;;;14.8;74.7
23253;BME280;11795;47.054;15.408;2022-09-17T10:52:05;96630;;;15.0;74.4
23253;BME280;11795;47.054;15.408;2022-09-17T10:54:08;96640;;;14.9;75.0
23253;BME280;11795;47.054;15.408;2022-09-17T10:56:06;96630;;;14.8;75.0
23253;BME280;11795;47.054;15.408;2022-09-17T10:58:08;96630;;;14.9;74.3
23253;BME280;11795;47.054;15.408;2022-09-17T11:00:09;96640;;;14.8;74.8
23253;BME280;11795;47.054;15.408;2022-09-17T11:02:15;96640;;;15.0;74.5
23253;BME280;11795;47.054;15.408;2022-09-17T11:04:15;96630;;;14.8;74.6
23253;BME280;11795;47.054;15.408;2022-09-17T11:08:07;96630;;;14.9;73.5
23253;BME280;11795;47.054;15.408;2022-09-17T11:10:08;96620;;;14.8;73.4
23253;BME280;11795;47.054;15.408;2022-09-17T11:12:14;96620;;;14.9;73.0